createdAt,value
2022-10-30T00:01:02.638Z,13.73
2022-10-30T00:03:29.260Z,14.10
2022-10-30T00:05:55.892Z,12.75
2022-10-30T00:08:22.876Z,12.77
2022-10-30T00:11:14.725Z,13.60
2022-10-30T00:13:43.493Z,11.38
2022-10-30T00:16:10.332Z,14.63
2022-10-30T00:18:37.754Z,14.43
2022-10-30T00:21:08.258Z,13.60
2022-10-30T00:23:34.911Z,12.35
2022-10-30T00:26:07.914Z,11.73
2022-10-30T00:28:34.578Z,11.65
2022-10-30T00:31:01.872Z,11.93
2022-10-30T00:33:28.499Z,11.73
2022-10-30T00:35:55.179Z,11.45
2022-10-30T00:38:21.762Z,11.05
2022-10-30T00:40:48.368Z,11.50
2022-10-30T00:43:32.636Z,10.07
2022-10-30T00:46:02.569Z,9.95
2022-10-30T00:48:29.137Z,10.77
2022-10-30T00:50:55.720Z,10.00
2022-10-30T00:53:22.721Z,9.73
2022-10-30T00:55:56.207Z,9.25
2022-10-30T00:58:33.990Z,8.93
2022-10-30T01:01:02.237Z,7.85
2022-10-30T01:03:28.992Z,8.05
2022-10-30T01:05:57.769Z,8.77
2022-10-30T01:08:24.429Z,8.02
2022-10-30T01:10:51.119Z,8.52
2022-10-30T01:13:18.058Z,7.65
2022-10-30T01:16:11.228Z,8.82
2022-10-30T01:18:55.633Z,8.32
2022-10-30T01:21:47.001Z,7.13
2022-10-30T01:24:43.946Z,7.05
2022-10-30T01:27:25.569Z,8.27
2022-10-30T01:30:04.286Z,8.27
2022-10-30T01:32:33.885Z,7.05
2022-10-30T01:35:09.520Z,8.05
2022-10-30T01:37:54.261Z,7.90
2022-10-30T01:40:21.336Z,6.45
2022-10-30T01:42:58.500Z,7.43
2022-10-30T01:45:40.229Z,7.70
2022-10-30T01:48:34.872Z,7.68
2022-10-30T01:51:24.212Z,7.57
2022-10-30T01:54:16.017Z,7.43
2022-10-30T01:56:49.821Z,7.70
2022-10-30T01:59:34.469Z,6.55
2022-10-30T02:02:01.255Z,6.78
2022-10-30T02:04:28.002Z,6.57
2022-10-30T02:06:54.639Z,6.35
2022-10-30T02:09:21.269Z,6.80
2022-10-30T02:11:47.888Z,7.20
2022-10-30T02:14:17.181Z,7.13
2022-10-30T02:16:46.263Z,8.05
2022-10-30T02:19:12.840Z,6.38
2022-10-30T02:21:39.465Z,7.10
2022-10-30T02:24:06.441Z,7.65
2022-10-30T02:26:33.193Z,8.18
2022-10-30T02:28:59.823Z,6.45
2022-10-30T02:31:26.552Z,7.45
2022-10-30T02:33:53.172Z,6.65
2022-10-30T02:36:19.776Z,6.55
2022-10-30T02:38:46.386Z,6.60
2022-10-30T02:41:12.982Z,7.60
2022-10-30T02:43:39.636Z,6.90
2022-10-30T02:46:06.213Z,6.20
2022-10-30T02:48:33.078Z,6.68
2022-10-30T02:51:03.568Z,6.60
2022-10-30T02:53:30.221Z,5.78
2022-10-30T02:55:56.958Z,6.82
2022-10-30T02:58:23.517Z,6.82
2022-10-30T03:00:50.275Z,7.40
2022-10-30T03:03:19.982Z,7.10
2022-10-30T03:05:49.766Z,7.47
2022-10-30T03:08:16.377Z,7.28
2022-10-30T03:10:42.963Z,6.60
2022-10-30T03:13:09.519Z,6.70
2022-10-30T03:15:36.105Z,6.53
2022-10-30T03:18:02.732Z,6.55
2022-10-30T03:20:29.277Z,6.95
2022-10-30T03:22:56.462Z,7.32
2022-10-30T03:25:24.029Z,6.80
2022-10-30T03:27:50.890Z,7.20
2022-10-30T03:30:18.128Z,6.85
2022-10-30T03:32:44.790Z,6.45
2022-10-30T03:35:11.364Z,6.40
2022-10-30T03:37:37.980Z,5.95
2022-10-30T03:40:04.838Z,5.97
2022-10-30T03:42:31.566Z,5.40
2022-10-30T03:44:58.162Z,5.75
2022-10-30T03:47:24.756Z,6.05
2022-10-30T03:49:51.353Z,5.88
2022-10-30T03:52:17.988Z,6.10
2022-10-30T03:54:44.648Z,5.57
2022-10-30T03:57:11.204Z,5.47
2022-10-30T03:59:37.859Z,6.45
2022-10-30T04:02:04.589Z,7.13
2022-10-30T04:04:31.327Z,6.45
2022-10-30T04:06:57.981Z,6.72
2022-10-30T04:09:24.607Z,6.32
2022-10-30T04:11:51.165Z,6.47
2022-10-30T04:14:17.760Z,5.78
2022-10-30T04:16:44.386Z,5.93
2022-10-30T04:19:10.993Z,7.25
2022-10-30T04:21:38.379Z,6.40
2022-10-30T04:24:05.213Z,5.97
2022-10-30T04:26:31.806Z,7.05
2022-10-30T04:28:58.550Z,6.63
2022-10-30T04:31:25.330Z,6.50
2022-10-30T04:33:51.945Z,6.18
2022-10-30T04:36:18.674Z,6.95
2022-10-30T04:38:45.283Z,6.32
2022-10-30T04:41:11.879Z,5.80
2022-10-30T04:43:38.702Z,6.28
2022-10-30T04:46:06.019Z,5.28
2022-10-30T04:48:35.110Z,6.00
2022-10-30T04:51:01.824Z,5.97
2022-10-30T04:53:28.392Z,6.63
2022-10-30T04:55:55.064Z,5.50
2022-10-30T04:58:21.717Z,6.10
2022-10-30T05:00:48.345Z,6.20
2022-10-30T05:03:22.491Z,5.82
2022-10-30T05:05:55.698Z,6.33
2022-10-30T05:08:22.366Z,6.68
2022-10-30T05:10:48.929Z,6.72
2022-10-30T05:13:15.493Z,6.05
2022-10-30T05:15:42.094Z,4.90
2022-10-30T05:18:08.706Z,5.72
2022-10-30T05:20:35.301Z,6.13
2022-10-30T05:23:01.928Z,6.13
2022-10-30T05:25:28.595Z,5.53
2022-10-30T05:28:00.042Z,5.57
2022-10-30T05:30:28.397Z,5.80
2022-10-30T05:33:05.660Z,6.22
2022-10-30T05:35:35.200Z,6.70
2022-10-30T05:38:06.274Z,6.18
2022-10-30T05:40:33.704Z,5.88
2022-10-30T05:43:00.871Z,6.28
2022-10-30T05:45:27.695Z,7.25
2022-10-30T05:48:02.205Z,6.60
2022-10-30T05:50:29.278Z,6.60
2022-10-30T05:53:03.040Z,6.60
2022-10-30T05:55:29.714Z,7.38
2022-10-30T05:58:03.027Z,7.63
2022-10-30T06:00:30.934Z,7.10
2022-10-30T06:03:05.221Z,8.57
2022-10-30T06:05:33.217Z,8.52
2022-10-30T06:07:59.927Z,8.02
2022-10-30T06:10:26.929Z,8.27
2022-10-30T06:13:04.493Z,7.72
2022-10-30T06:15:31.225Z,8.80
2022-10-30T06:17:58.195Z,7.63
2022-10-30T06:20:27.146Z,8.18
2022-10-30T06:22:57.818Z,9.27
2022-10-30T06:25:24.581Z,9.85
2022-10-30T06:27:51.280Z,9.00
2022-10-30T06:30:18.152Z,8.63
2022-10-30T06:32:44.850Z,9.05
2022-10-30T06:35:11.533Z,9.80
2022-10-30T06:37:40.841Z,9.18
2022-10-30T06:40:08.206Z,9.70
2022-10-30T06:42:42.414Z,9.23
2022-10-30T06:45:09.632Z,8.70
2022-10-30T06:47:36.428Z,7.45
2022-10-30T06:50:04.188Z,8.10
2022-10-30T06:52:30.791Z,8.38
2022-10-30T06:54:57.389Z,7.38
2022-10-30T06:57:24.061Z,7.47
2022-10-30T06:59:50.699Z,7.20
2022-10-30T07:02:17.361Z,7.05
2022-10-30T07:04:45.681Z,6.80
2022-10-30T07:07:13.281Z,7.57
2022-10-30T07:09:39.925Z,7.18
2022-10-30T07:12:07.525Z,7.63
2022-10-30T07:14:34.588Z,6.60
2022-10-30T07:17:01.381Z,6.90
2022-10-30T07:19:28.033Z,7.40
2022-10-30T07:21:54.827Z,7.72
2022-10-30T07:24:21.526Z,6.65
2022-10-30T07:26:48.128Z,6.32
2022-10-30T07:29:14.942Z,7.18
2022-10-30T07:31:42.149Z,7.47
2022-10-30T07:34:16.442Z,8.23
2022-10-30T07:36:43.162Z,7.65
2022-10-30T07:39:09.901Z,7.40
2022-10-30T07:41:36.498Z,6.93
2022-10-30T07:44:03.120Z,6.35
2022-10-30T07:46:29.745Z,6.35
2022-10-30T07:48:56.966Z,6.95
2022-10-30T07:51:26.721Z,6.22
2022-10-30T07:53:53.344Z,6.05
2022-10-30T07:56:20.090Z,8.18
2022-10-30T07:59:06.985Z,6.55
2022-10-30T08:01:33.753Z,6.38
2022-10-30T08:04:00.448Z,6.82
2022-10-30T08:06:27.476Z,4.90
2022-10-30T08:08:54.220Z,5.55
2022-10-30T08:11:20.833Z,5.30
2022-10-30T08:13:47.436Z,6.13
2022-10-30T08:16:14.752Z,6.20
2022-10-30T08:18:42.624Z,5.53
2022-10-30T08:21:09.830Z,4.82
2022-10-30T08:23:36.481Z,5.60
2022-10-30T08:26:03.212Z,5.43
2022-10-30T08:28:43.142Z,5.43
2022-10-30T08:31:09.729Z,4.20
2022-10-30T08:33:36.347Z,4.10
2022-10-30T08:36:03.000Z,3.70
2022-10-30T08:38:29.760Z,2.80
2022-10-30T08:40:56.389Z,2.72
2022-10-30T08:43:25.305Z,3.30
2022-10-30T08:45:52.029Z,2.75
2022-10-30T08:48:18.678Z,3.03
2022-10-30T08:50:45.328Z,3.05
2022-10-30T08:53:13.006Z,3.20
2022-10-30T08:55:39.632Z,3.40
2022-10-30T08:58:06.255Z,3.55
2022-10-30T09:00:32.888Z,4.03
2022-10-30T09:02:59.788Z,4.15
2022-10-30T09:05:26.533Z,3.80
2022-10-30T09:08:01.330Z,4.43
2022-10-30T09:10:28.866Z,4.40
2022-10-30T09:12:59.108Z,4.20
2022-10-30T09:15:26.007Z,4.45
2022-10-30T09:18:03.486Z,4.10
2022-10-30T09:20:30.386Z,4.55
2022-10-30T09:22:57.338Z,3.45
2022-10-30T09:25:24.329Z,4.70
2022-10-30T09:27:50.981Z,4.30
2022-10-30T09:30:17.572Z,3.97
2022-10-30T09:32:44.202Z,4.32
2022-10-30T09:35:10.859Z,4.25
2022-10-30T09:37:37.801Z,4.05
2022-10-30T09:40:05.363Z,3.75
2022-10-30T09:42:44.201Z,4.18
2022-10-30T09:45:32.575Z,3.90
2022-10-30T09:48:34.553Z,4.15
2022-10-30T09:51:28.987Z,4.13
2022-10-30T09:54:10.689Z,3.67
2022-10-30T09:56:53.555Z,3.80
2022-10-30T09:59:28.172Z,3.85
2022-10-30T10:02:33.222Z,3.85
2022-10-30T10:05:26.731Z,3.97
2022-10-30T10:07:58.995Z,4.38
2022-10-30T10:10:43.491Z,3.88
2022-10-30T10:13:31.899Z,3.80
2022-10-30T10:16:15.025Z,3.80
2022-10-30T10:19:04.401Z,4.25
2022-10-30T10:21:30.975Z,3.60
2022-10-30T10:24:04.095Z,4.40
2022-10-30T10:26:47.430Z,4.07
2022-10-30T10:29:17.130Z,3.70
2022-10-30T10:31:50.008Z,4.00
2022-10-30T10:34:20.711Z,4.03
2022-10-30T10:36:51.148Z,3.95
2022-10-30T10:39:39.494Z,3.88
2022-10-30T10:42:24.690Z,4.53
2022-10-30T10:47:44.998Z,3.80
2022-10-30T10:50:15.378Z,4.13
2022-10-30T10:53:12.805Z,3.97
2022-10-30T10:55:39.460Z,4.18
2022-10-30T10:58:54.233Z,4.32
2022-10-30T11:01:31.603Z,4.25
2022-10-30T11:04:01.003Z,4.82
2022-10-30T11:06:28.522Z,4.38
2022-10-30T11:09:01.766Z,4.40
2022-10-30T11:11:28.479Z,4.47
2022-10-30T11:13:55.071Z,4.40
2022-10-30T11:16:30.622Z,4.53
2022-10-30T11:19:01.523Z,4.50
2022-10-30T11:21:29.389Z,4.53
2022-10-30T11:23:56.068Z,4.22
2022-10-30T11:26:23.001Z,4.32
2022-10-30T11:29:05.842Z,4.50
2022-10-30T11:31:35.055Z,4.63
2022-10-30T11:34:27.798Z,4.80
2022-10-30T11:36:54.449Z,4.45
2022-10-30T11:39:25.051Z,4.63
2022-10-30T11:42:02.210Z,4.28
2022-10-30T11:44:36.368Z,5.13
2022-10-30T11:47:03.150Z,5.63
2022-10-30T11:49:48.748Z,5.90
2022-10-30T11:52:19.172Z,5.57
2022-10-30T11:54:48.374Z,5.88
2022-10-30T11:57:22.310Z,5.57
2022-10-30T11:59:50.957Z,5.83
2022-10-30T12:02:28.710Z,6.57
2022-10-30T12:04:56.463Z,6.45
2022-10-30T12:07:22.929Z,6.13
2022-10-30T12:09:49.644Z,6.10
2022-10-30T12:12:23.395Z,5.38
2022-10-30T12:14:50.643Z,5.60
2022-10-30T12:17:17.390Z,5.50
2022-10-30T12:20:02.289Z,5.15
2022-10-30T12:22:33.143Z,5.35
2022-10-30T12:25:04.749Z,5.32
2022-10-30T12:27:32.478Z,5.45
2022-10-30T12:30:19.259Z,5.72
2022-10-30T12:32:50.856Z,5.38
2022-10-30T12:35:43.161Z,5.30
2022-10-30T12:38:24.270Z,4.80
2022-10-30T12:41:04.282Z,5.20
2022-10-30T12:43:32.842Z,4.82
2022-10-30T12:46:40.648Z,4.95
2022-10-30T12:49:44.592Z,5.00
2022-10-30T12:52:22.062Z,5.07
2022-10-30T12:55:01.456Z,5.53
2022-10-30T12:57:30.972Z,5.78
2022-10-30T13:00:14.027Z,5.25
2022-10-30T13:02:49.501Z,5.20
2022-10-30T13:05:43.991Z,5.78
2022-10-30T13:08:17.147Z,5.90
2022-10-30T13:10:52.791Z,5.70
2022-10-30T13:13:25.585Z,5.03
2022-10-30T13:15:54.404Z,5.18
2022-10-30T13:18:22.670Z,5.18
2022-10-30T13:21:11.161Z,5.57
2022-10-30T13:23:43.168Z,5.60
2022-10-30T13:26:15.612Z,6.43
2022-10-30T13:28:46.986Z,5.60
2022-10-30T13:31:34.984Z,6.03
2022-10-30T13:34:03.784Z,6.90
2022-10-30T13:36:35.423Z,6.50
2022-10-30T13:39:22.745Z,6.55
2022-10-30T13:42:39.908Z,6.85
2022-10-30T13:45:23.531Z,7.93
2022-10-30T13:48:05.332Z,7.72
2022-10-30T13:50:31.782Z,8.18
2022-10-30T13:52:59.702Z,7.28
2022-10-30T13:55:30.906Z,8.77
2022-10-30T13:58:11.136Z,9.55
2022-10-30T14:01:05.046Z,10.00
2022-10-30T14:03:38.843Z,9.55
2022-10-30T14:06:14.473Z,10.23
2022-10-30T14:08:53.483Z,10.75
2022-10-30T14:11:20.103Z,10.90
2022-10-30T14:13:54.319Z,10.90
2022-10-30T14:16:38.932Z,12.50
2022-10-30T14:19:09.954Z,10.70
2022-10-30T14:21:44.453Z,11.38
2022-10-30T14:24:32.656Z,12.73
2022-10-30T14:27:05.398Z,12.13
2022-10-30T14:29:35.026Z,12.25
2022-10-30T14:32:02.185Z,12.00
2022-10-30T14:34:50.065Z,13.90
2022-10-30T14:37:37.478Z,10.73
2022-10-30T14:40:40.059Z,10.45
2022-10-30T14:43:10.170Z,10.13
2022-10-30T14:45:47.942Z,11.23
2022-10-30T14:48:17.644Z,11.45
2022-10-30T14:51:05.812Z,11.85
2022-10-30T14:53:35.373Z,11.00
2022-10-30T14:56:04.913Z,10.55
2022-10-30T14:58:38.063Z,13.70
2022-10-30T15:01:04.531Z,11.98
2022-10-30T15:03:54.034Z,12.18
2022-10-30T15:06:50.274Z,10.52
2022-10-30T15:09:54.459Z,12.80
2022-10-30T15:15:05.178Z,14.73
2022-10-30T15:17:39.970Z,17.52
2022-10-30T15:23:04.904Z,29.10
2022-10-30T15:25:36.987Z,17.98
2022-10-30T15:28:03.736Z,22.17
2022-10-30T15:30:30.358Z,16.00
2022-10-30T15:32:57.144Z,13.38
2022-10-30T15:35:27.439Z,11.45
2022-10-30T15:38:00.490Z,11.55
2022-10-30T15:40:27.317Z,12.10
2022-10-30T15:42:53.934Z,11.05
2022-10-30T15:45:40.584Z,11.68
2022-10-30T15:48:15.188Z,13.77
2022-10-30T15:50:44.532Z,12.60
2022-10-30T15:53:21.097Z,10.20
2022-10-30T15:55:47.884Z,12.27
2022-10-30T15:58:16.599Z,12.10
2022-10-30T16:00:43.282Z,13.20
2022-10-30T16:03:12.798Z,16.30
2022-10-30T16:05:39.351Z,13.55
2022-10-30T16:08:19.398Z,13.13
2022-10-30T16:10:46.054Z,12.40
2022-10-30T16:13:31.413Z,11.57
2022-10-30T16:18:28.925Z,11.07
2022-10-30T16:21:22.211Z,11.02
2022-10-30T16:23:56.587Z,10.60
2022-10-30T16:26:29.999Z,10.80
2022-10-30T16:28:57.188Z,10.35
2022-10-30T16:31:24.808Z,13.07
2022-10-30T16:33:51.478Z,13.80
2022-10-30T16:36:18.219Z,14.63
2022-10-30T16:38:47.152Z,14.98
2022-10-30T16:41:13.905Z,17.05
2022-10-30T16:43:41.609Z,16.77
2022-10-30T16:46:15.457Z,12.38
2022-10-30T16:48:51.206Z,12.95
2022-10-30T16:51:17.844Z,11.40
2022-10-30T16:53:53.566Z,12.48
2022-10-30T16:56:30.642Z,11.90
2022-10-30T16:59:36.248Z,15.27
2022-10-30T17:02:06.002Z,10.45
2022-10-30T17:04:34.368Z,14.77
2022-10-30T17:07:15.727Z,19.20
2022-10-30T17:09:42.386Z,16.55
2022-10-30T17:12:16.148Z,16.23
2022-10-30T17:14:52.978Z,15.80
2022-10-30T17:17:30.908Z,13.18
2022-10-30T17:20:01.690Z,12.57
2022-10-30T17:22:28.401Z,16.60
2022-10-30T17:24:55.135Z,14.90
2022-10-30T17:27:31.882Z,19.17
2022-10-30T17:29:58.657Z,16.80
2022-10-30T17:32:26.896Z,17.23
2022-10-30T17:35:02.284Z,16.80
2022-10-30T17:37:29.170Z,16.02
2022-10-30T17:39:55.816Z,13.30
2022-10-30T17:42:22.727Z,16.20
2022-10-30T17:44:49.363Z,19.05
2022-10-30T17:47:17.834Z,16.58
2022-10-30T17:49:44.622Z,20.73
2022-10-30T17:52:13.442Z,21.50
2022-10-30T17:54:41.349Z,24.42
2022-10-30T17:57:11.105Z,18.20
2022-10-30T17:59:37.859Z,20.15
2022-10-30T18:02:19.577Z,22.08
2022-10-30T18:04:46.380Z,23.65
2022-10-30T18:07:13.459Z,19.23
2022-10-30T18:09:40.297Z,19.50
2022-10-30T18:12:07.789Z,19.50
2022-10-30T18:14:34.391Z,16.25
2022-10-30T18:17:01.015Z,19.45
2022-10-30T18:19:27.851Z,22.10
2022-10-30T18:21:54.766Z,23.77
2022-10-30T18:24:21.482Z,20.63
2022-10-30T18:26:48.410Z,18.42
2022-10-30T18:29:15.177Z,16.88
2022-10-30T18:31:41.928Z,14.70
2022-10-30T18:34:18.369Z,16.60
2022-10-30T18:36:45.215Z,14.73
2022-10-30T18:39:13.098Z,14.52
2022-10-30T18:41:46.478Z,17.48
2022-10-30T18:44:14.796Z,17.60
2022-10-30T18:46:41.494Z,15.10
2022-10-30T18:49:08.197Z,13.88
2022-10-30T18:51:34.939Z,13.80
2022-10-30T18:54:01.583Z,14.65
2022-10-30T18:56:29.404Z,15.23
2022-10-30T18:59:01.537Z,17.90
2022-10-30T19:01:29.879Z,17.15
2022-10-30T19:03:56.623Z,14.82
2022-10-30T19:06:23.952Z,16.55
2022-10-30T19:08:50.747Z,17.10
2022-10-30T19:11:24.017Z,24.30
2022-10-30T19:13:52.232Z,25.25
2022-10-30T19:16:19.379Z,25.70
2022-10-30T19:18:46.162Z,20.33
2022-10-30T19:21:25.028Z,25.70
2022-10-30T19:23:51.643Z,20.15
2022-10-30T19:26:18.225Z,23.95
2022-10-30T19:28:45.294Z,18.67
2022-10-30T19:31:15.953Z,25.05
2022-10-30T19:33:42.640Z,18.35
2022-10-30T19:36:29.023Z,18.63
2022-10-30T19:38:56.120Z,19.95
2022-10-30T19:41:24.794Z,18.38
2022-10-30T19:43:52.353Z,14.23
2022-10-30T19:46:19.088Z,13.98
2022-10-30T19:49:01.120Z,13.77
2022-10-30T19:51:28.502Z,13.98
2022-10-30T19:53:55.167Z,13.27
2022-10-30T19:56:22.085Z,13.60
2022-10-30T19:58:48.990Z,13.30
2022-10-30T20:01:16.035Z,14.50
2022-10-30T20:03:42.949Z,14.52
2022-10-30T20:06:11.908Z,18.48
2022-10-30T20:08:38.528Z,14.10
2022-10-30T20:11:05.567Z,15.02
2022-10-30T20:13:33.560Z,12.07
2022-10-30T20:16:00.834Z,11.10
2022-10-30T20:18:30.679Z,10.88
2022-10-30T20:20:59.068Z,9.80
2022-10-30T20:23:25.956Z,11.63
2022-10-30T20:25:53.959Z,11.70
2022-10-30T20:28:35.715Z,11.73
2022-10-30T20:31:02.408Z,11.75
2022-10-30T20:33:29.526Z,11.35
2022-10-30T20:35:56.621Z,11.43
2022-10-30T20:38:30.696Z,10.13
2022-10-30T20:40:57.898Z,13.27
2022-10-30T20:43:29.485Z,10.55
2022-10-30T20:46:00.410Z,11.05
2022-10-30T20:48:27.398Z,11.05
2022-10-30T20:50:55.031Z,8.07
2022-10-30T20:53:21.674Z,11.05
2022-10-30T20:55:48.566Z,9.15
2022-10-30T20:58:15.205Z,9.77
2022-10-30T21:00:42.213Z,10.00
2022-10-30T21:03:09.327Z,13.13
2022-10-30T21:05:45.060Z,12.40
2022-10-30T21:08:16.024Z,15.25
2022-10-30T21:10:42.692Z,9.98
2022-10-30T21:13:10.107Z,8.55
2022-10-30T21:15:41.717Z,10.95
2022-10-30T21:18:08.997Z,9.40
2022-10-30T21:20:36.351Z,10.85
2022-10-30T21:23:03.082Z,11.73
2022-10-30T21:25:31.992Z,10.60
2022-10-30T21:27:58.689Z,11.02
2022-10-30T21:30:25.402Z,11.48
2022-10-30T21:32:52.140Z,10.77
2022-10-30T21:35:18.929Z,11.77
2022-10-30T21:37:45.549Z,11.02
2022-10-30T21:40:12.840Z,10.90
2022-10-30T21:42:39.452Z,10.82
2022-10-30T21:45:06.865Z,9.77
2022-10-30T21:47:34.054Z,10.82
2022-10-30T21:50:00.646Z,10.05
2022-10-30T21:52:27.347Z,14.60
2022-10-30T21:54:56.184Z,10.48
2022-10-30T21:57:22.814Z,10.25
2022-10-30T21:59:49.770Z,10.35
2022-10-30T22:02:16.625Z,11.05
2022-10-30T22:04:43.229Z,11.63
2022-10-30T22:07:09.837Z,10.77
2022-10-30T22:09:37.794Z,10.55
2022-10-30T22:12:04.557Z,14.15
2022-10-30T22:14:31.208Z,14.15
2022-10-30T22:16:57.883Z,16.50
2022-10-30T22:19:24.845Z,10.55
2022-10-30T22:21:52.295Z,10.30
2022-10-30T22:24:19.101Z,10.60
2022-10-30T22:26:46.149Z,7.93
2022-10-30T22:29:12.896Z,8.77
2022-10-30T22:31:39.862Z,8.55
2022-10-30T22:34:06.632Z,7.82
2022-10-30T22:36:33.887Z,7.28
2022-10-30T22:39:01.761Z,7.95
2022-10-30T22:41:31.431Z,7.05
2022-10-30T22:44:03.266Z,6.97
2022-10-30T22:46:30.382Z,6.93
2022-10-30T22:48:57.720Z,9.80
2022-10-30T22:51:25.678Z,7.38
2022-10-30T22:53:57.178Z,8.25
2022-10-30T22:56:28.439Z,6.47
2022-10-30T22:58:55.483Z,8.10
2022-10-30T23:01:27.256Z,7.72
2022-10-30T23:03:58.430Z,8.80
2022-10-30T23:06:25.502Z,6.93
2022-10-30T23:08:53.016Z,7.07
2022-10-30T23:11:19.821Z,8.90
2022-10-30T23:13:47.759Z,6.50
2022-10-30T23:16:16.125Z,6.50
2022-10-30T23:18:43.387Z,7.68
2022-10-30T23:21:17.762Z,5.07
2022-10-30T23:23:44.775Z,5.03
2022-10-30T23:26:18.545Z,5.35
2022-10-30T23:28:45.352Z,5.47
2022-10-30T23:31:36.113Z,7.32
2022-10-30T23:34:05.809Z,5.95
2022-10-30T23:36:32.425Z,8.18
2022-10-30T23:39:00.732Z,5.90
2022-10-30T23:41:30.987Z,6.53
2022-10-30T23:43:58.774Z,7.15
2022-10-30T23:46:25.587Z,6.20
2022-10-30T23:48:52.217Z,6.97
2022-10-30T23:51:20.027Z,6.85
2022-10-30T23:53:46.644Z,8.55
2022-10-30T23:56:13.566Z,6.90
2022-10-30T23:58:45.887Z,5.68
